sensor_id;sensor_type;location;lat;lon;timestamp;P1;durP1;ratioP1;P2;durP2;ratioP2
33154;SDS011;19511;42.682;23.332;2023-06-22T00:01:58;18.30;;;9.57;;
33154;SDS011;19511;42.682;23.332;2023-06-22T00:04:24;13.38;;;8.52;;
33154;SDS011;19511;42.682;23.332;2023-06-22T00:06:50;17.38;;;8.90;;
33154;SDS011;19511;42.682;23.332;2023-06-22T00:09:19;15.85;;;8.85;;
33154;SDS011;19511;42.682;23.332;2023-06-22T00:11:45;17.30;;;9.00;;
33154;SDS011;19511;42.682;23.332;2023-06-22T00:14:14;13.93;;;8.50;;
33154;SDS011;19511;42.682;23.332;2023-06-22T00:16:39;14.52;;;8.75;;
33154;SDS011;19511;42.682;23.332;2023-06-22T00:19:05;14.15;;;8.20;;
33154;SDS011;19511;42.682;23.332;2023-06-22T00:21:30;15.98;;;9.57;;
33154;SDS011;19511;42.682;23.332;2023-06-22T00:23:55;21.45;;;9.63;;
33154;SDS011;19511;42.682;23.332;2023-06-22T00:26:22;14.50;;;7.88;;
33154;SDS011;19511;42.682;23.332;2023-06-22T00:28:47;16.00;;;8.65;;
33154;SDS011;19511;42.682;23.332;2023-06-22T00:31:13;18.13;;;9.18;;
33154;SDS011;19511;42.682;23.332;2023-06-22T00:33:38;17.08;;;7.85;;
33154;SDS011;19511;42.682;23.332;2023-06-22T00:36:04;11.90;;;7.53;;
33154;SDS011;19511;42.682;23.332;2023-06-22T00:38:33;18.02;;;9.50;;
33154;SDS011;19511;42.682;23.332;2023-06-22T00:40:59;13.52;;;7.75;;
33154;SDS011;19511;42.682;23.332;2023-06-22T00:43:32;15.57;;;9.13;;
33154;SDS011;19511;42.682;23.332;2023-06-22T00:45:57;16.20;;;8.65;;
33154;SDS011;19511;42.682;23.332;2023-06-22T00:48:23;15.55;;;8.88;;
33154;SDS011;19511;42.682;23.332;2023-06-22T00:50:52;13.73;;;8.00;;
33154;SDS011;19511;42.682;23.332;2023-06-22T00:53:21;16.38;;;9.23;;
33154;SDS011;19511;42.682;23.332;2023-06-22T00:55:46;14.60;;;8.77;;
33154;SDS011;19511;42.682;23.332;2023-06-22T00:58:16;16.63;;;8.63;;
33154;SDS011;19511;42.682;23.332;2023-06-22T01:00:46;20.33;;;10.07;;
33154;SDS011;19511;42.682;23.332;2023-06-22T01:03:12;17.75;;;9.43;;
33154;SDS011;19511;42.682;23.332;2023-06-22T01:05:38;14.90;;;9.00;;
33154;SDS011;19511;42.682;23.332;2023-06-22T01:10:50;14.88;;;9.07;;
33154;SDS011;19511;42.682;23.332;2023-06-22T01:16:16;17.60;;;9.10;;
33154;SDS011;19511;42.682;23.332;2023-06-22T01:18:50;15.05;;;9.40;;
33154;SDS011;19511;42.682;23.332;2023-06-22T01:21:20;15.95;;;9.15;;
33154;SDS011;19511;42.682;23.332;2023-06-22T01:29:16;17.15;;;9.07;;
33154;SDS011;19511;42.682;23.332;2023-06-22T01:31:44;16.02;;;9.63;;
33154;SDS011;19511;42.682;23.332;2023-06-22T01:34:10;17.52;;;9.30;;
33154;SDS011;19511;42.682;23.332;2023-06-22T01:36:37;17.08;;;9.80;;
33154;SDS011;19511;42.682;23.332;2023-06-22T01:39:04;18.63;;;10.35;;
33154;SDS011;19511;42.682;23.332;2023-06-22T01:41:32;19.42;;;9.35;;
33154;SDS011;19511;42.682;23.332;2023-06-22T01:44:00;22.95;;;10.60;;
33154;SDS011;19511;42.682;23.332;2023-06-22T01:46:26;15.55;;;9.32;;
33154;SDS011;19511;42.682;23.332;2023-06-22T01:48:52;19.60;;;9.82;;
33154;SDS011;19511;42.682;23.332;2023-06-22T01:51:19;19.65;;;10.38;;
33154;SDS011;19511;42.682;23.332;2023-06-22T01:53:44;15.30;;;9.13;;
33154;SDS011;19511;42.682;23.332;2023-06-22T01:56:10;19.67;;;10.13;;
33154;SDS011;19511;42.682;23.332;2023-06-22T01:58:37;17.13;;;10.00;;
33154;SDS011;19511;42.682;23.332;2023-06-22T02:01:12;19.42;;;10.15;;
33154;SDS011;19511;42.682;23.332;2023-06-22T02:03:55;19.55;;;9.43;;
33154;SDS011;19511;42.682;23.332;2023-06-22T02:06:36;19.00;;;9.80;;
33154;SDS011;19511;42.682;23.332;2023-06-22T02:09:12;15.10;;;9.15;;
33154;SDS011;19511;42.682;23.332;2023-06-22T02:11:41;17.92;;;9.77;;
33154;SDS011;19511;42.682;23.332;2023-06-22T02:14:13;17.20;;;9.38;;
33154;SDS011;19511;42.682;23.332;2023-06-22T02:16:40;17.80;;;8.68;;
33154;SDS011;19511;42.682;23.332;2023-06-22T02:19:10;17.45;;;9.32;;
33154;SDS011;19511;42.682;23.332;2023-06-22T02:21:35;15.85;;;9.88;;
33154;SDS011;19511;42.682;23.332;2023-06-22T02:24:01;19.85;;;9.02;;
33154;SDS011;19511;42.682;23.332;2023-06-22T02:26:27;16.60;;;9.38;;
33154;SDS011;19511;42.682;23.332;2023-06-22T02:28:53;16.88;;;9.70;;
33154;SDS011;19511;42.682;23.332;2023-06-22T02:31:18;18.35;;;9.95;;
33154;SDS011;19511;42.682;23.332;2023-06-22T02:33:55;19.38;;;10.88;;
33154;SDS011;19511;42.682;23.332;2023-06-22T02:36:24;18.45;;;10.40;;
33154;SDS011;19511;42.682;23.332;2023-06-22T02:38:54;14.48;;;8.52;;
33154;SDS011;19511;42.682;23.332;2023-06-22T02:41:26;14.07;;;8.45;;
33154;SDS011;19511;42.682;23.332;2023-06-22T02:43:55;21.25;;;9.73;;
33154;SDS011;19511;42.682;23.332;2023-06-22T02:46:25;20.58;;;9.70;;
33154;SDS011;19511;42.682;23.332;2023-06-22T02:48:50;16.27;;;9.35;;
33154;SDS011;19511;42.682;23.332;2023-06-22T02:51:16;24.25;;;9.38;;
33154;SDS011;19511;42.682;23.332;2023-06-22T02:53:41;16.30;;;9.40;;
33154;SDS011;19511;42.682;23.332;2023-06-22T02:56:09;16.30;;;8.45;;
33154;SDS011;19511;42.682;23.332;2023-06-22T02:58:35;16.60;;;9.77;;
33154;SDS011;19511;42.682;23.332;2023-06-22T03:01:04;17.10;;;9.52;;
33154;SDS011;19511;42.682;23.332;2023-06-22T03:03:39;17.75;;;10.32;;
33154;SDS011;19511;42.682;23.332;2023-06-22T03:06:04;18.45;;;10.13;;
33154;SDS011;19511;42.682;23.332;2023-06-22T03:08:29;17.95;;;9.43;;
33154;SDS011;19511;42.682;23.332;2023-06-22T03:10:55;15.38;;;8.90;;
33154;SDS011;19511;42.682;23.332;2023-06-22T03:13:21;14.77;;;8.15;;
33154;SDS011;19511;42.682;23.332;2023-06-22T03:15:47;22.45;;;8.32;;
33154;SDS011;19511;42.682;23.332;2023-06-22T03:18:16;17.92;;;9.98;;
33154;SDS011;19511;42.682;23.332;2023-06-22T03:20:41;23.92;;;8.82;;
33154;SDS011;19511;42.682;23.332;2023-06-22T03:23:07;15.15;;;8.20;;
33154;SDS011;19511;42.682;23.332;2023-06-22T03:25:35;15.65;;;8.93;;
33154;SDS011;19511;42.682;23.332;2023-06-22T03:28:01;14.07;;;8.80;;
33154;SDS011;19511;42.682;23.332;2023-06-22T03:30:26;17.23;;;9.10;;
33154;SDS011;19511;42.682;23.332;2023-06-22T03:32:58;16.92;;;8.48;;
33154;SDS011;19511;42.682;23.332;2023-06-22T03:35:30;14.60;;;8.60;;
33154;SDS011;19511;42.682;23.332;2023-06-22T03:37:59;16.77;;;9.00;;
33154;SDS011;19511;42.682;23.332;2023-06-22T03:40:25;16.67;;;9.15;;
33154;SDS011;19511;42.682;23.332;2023-06-22T03:42:50;16.05;;;8.63;;
33154;SDS011;19511;42.682;23.332;2023-06-22T03:45:19;18.13;;;8.27;;
33154;SDS011;19511;42.682;23.332;2023-06-22T03:47:45;12.95;;;7.95;;
33154;SDS011;19511;42.682;23.332;2023-06-22T03:50:13;17.00;;;8.25;;
33154;SDS011;19511;42.682;23.332;2023-06-22T03:52:43;17.60;;;8.57;;
33154;SDS011;19511;42.682;23.332;2023-06-22T03:55:13;14.32;;;8.32;;
33154;SDS011;19511;42.682;23.332;2023-06-22T03:57:38;17.20;;;9.05;;
33154;SDS011;19511;42.682;23.332;2023-06-22T04:00:08;17.80;;;9.43;;
33154;SDS011;19511;42.682;23.332;2023-06-22T04:02:35;15.05;;;8.32;;
33154;SDS011;19511;42.682;23.332;2023-06-22T04:05:00;17.23;;;8.82;;
33154;SDS011;19511;42.682;23.332;2023-06-22T04:07:26;17.23;;;8.50;;
33154;SDS011;19511;42.682;23.332;2023-06-22T04:09:51;15.45;;;8.27;;
33154;SDS011;19511;42.682;23.332;2023-06-22T04:12:16;14.85;;;7.88;;
33154;SDS011;19511;42.682;23.332;2023-06-22T04:14:45;16.00;;;8.82;;
33154;SDS011;19511;42.682;23.332;2023-06-22T04:17:10;17.02;;;9.07;;
33154;SDS011;19511;42.682;23.332;2023-06-22T04:19:39;16.92;;;8.63;;
33154;SDS011;19511;42.682;23.332;2023-06-22T04:22:05;23.60;;;9.35;;
33154;SDS011;19511;42.682;23.332;2023-06-22T04:24:32;19.67;;;8.20;;
33154;SDS011;19511;42.682;23.332;2023-06-22T04:26:58;15.82;;;7.93;;
33154;SDS011;19511;42.682;23.332;2023-06-22T04:29:25;13.45;;;7.10;;
33154;SDS011;19511;42.682;23.332;2023-06-22T04:31:54;15.23;;;7.40;;
33154;SDS011;19511;42.682;23.332;2023-06-22T04:34:21;17.20;;;8.23;;
33154;SDS011;19511;42.682;23.332;2023-06-22T04:36:46;14.88;;;7.97;;
33154;SDS011;19511;42.682;23.332;2023-06-22T04:39:12;18.63;;;8.00;;
33154;SDS011;19511;42.682;23.332;2023-06-22T04:41:38;17.30;;;8.63;;
33154;SDS011;19511;42.682;23.332;2023-06-22T04:44:14;18.33;;;9.52;;
33154;SDS011;19511;42.682;23.332;2023-06-22T04:46:49;18.73;;;7.90;;
33154;SDS011;19511;42.682;23.332;2023-06-22T04:49:19;21.52;;;9.57;;
33154;SDS011;19511;42.682;23.332;2023-06-22T04:51:45;15.50;;;9.02;;
33154;SDS011;19511;42.682;23.332;2023-06-22T04:54:11;17.83;;;9.82;;
33154;SDS011;19511;42.682;23.332;2023-06-22T04:56:36;18.45;;;9.75;;
33154;SDS011;19511;42.682;23.332;2023-06-22T04:59:02;16.65;;;8.15;;
33154;SDS011;19511;42.682;23.332;2023-06-22T05:01:28;21.92;;;9.13;;
33154;SDS011;19511;42.682;23.332;2023-06-22T05:03:58;18.15;;;8.52;;
33154;SDS011;19511;42.682;23.332;2023-06-22T05:06:26;16.58;;;9.57;;
33154;SDS011;19511;42.682;23.332;2023-06-22T05:08:56;16.40;;;9.20;;
33154;SDS011;19511;42.682;23.332;2023-06-22T05:11:23;17.58;;;9.40;;
33154;SDS011;19511;42.682;23.332;2023-06-22T05:13:50;16.38;;;9.27;;
33154;SDS011;19511;42.682;23.332;2023-06-22T05:16:15;17.35;;;10.05;;
33154;SDS011;19511;42.682;23.332;2023-06-22T05:18:41;19.13;;;10.00;;
33154;SDS011;19511;42.682;23.332;2023-06-22T05:21:07;22.02;;;9.68;;
33154;SDS011;19511;42.682;23.332;2023-06-22T05:23:32;18.50;;;9.77;;
33154;SDS011;19511;42.682;23.332;2023-06-22T05:26:00;20.63;;;10.02;;
33154;SDS011;19511;42.682;23.332;2023-06-22T05:28:25;22.05;;;10.35;;
33154;SDS011;19511;42.682;23.332;2023-06-22T05:30:51;22.05;;;10.00;;
33154;SDS011;19511;42.682;23.332;2023-06-22T05:33:19;21.25;;;9.93;;
33154;SDS011;19511;42.682;23.332;2023-06-22T05:35:44;17.75;;;9.20;;
33154;SDS011;19511;42.682;23.332;2023-06-22T05:38:09;22.10;;;8.52;;
33154;SDS011;19511;42.682;23.332;2023-06-22T05:40:35;19.30;;;9.30;;
33154;SDS011;19511;42.682;23.332;2023-06-22T05:43:00;18.80;;;9.63;;
33154;SDS011;19511;42.682;23.332;2023-06-22T05:45:26;15.48;;;8.43;;
33154;SDS011;19511;42.682;23.332;2023-06-22T05:47:54;17.27;;;8.60;;
33154;SDS011;19511;42.682;23.332;2023-06-22T05:50:20;16.13;;;8.27;;
33154;SDS011;19511;42.682;23.332;2023-06-22T05:52:45;14.32;;;8.60;;
33154;SDS011;19511;42.682;23.332;2023-06-22T05:55:11;17.98;;;9.48;;
33154;SDS011;19511;42.682;23.332;2023-06-22T05:57:38;19.52;;;8.52;;
33154;SDS011;19511;42.682;23.332;2023-06-22T06:00:04;19.45;;;10.25;;
33154;SDS011;19511;42.682;23.332;2023-06-22T06:02:35;16.70;;;9.63;;
33154;SDS011;19511;42.682;23.332;2023-06-22T06:05:00;14.48;;;9.20;;
33154;SDS011;19511;42.682;23.332;2023-06-22T06:07:28;15.95;;;9.13;;
33154;SDS011;19511;42.682;23.332;2023-06-22T06:09:54;20.30;;;8.55;;
33154;SDS011;19511;42.682;23.332;2023-06-22T06:12:19;21.63;;;11.90;;
33154;SDS011;19511;42.682;23.332;2023-06-22T06:14:45;23.10;;;10.50;;
33154;SDS011;19511;42.682;23.332;2023-06-22T06:17:10;16.02;;;9.48;;
33154;SDS011;19511;42.682;23.332;2023-06-22T06:19:38;18.25;;;8.88;;
33154;SDS011;19511;42.682;23.332;2023-06-22T06:22:07;15.52;;;8.45;;
33154;SDS011;19511;42.682;23.332;2023-06-22T06:24:33;20.98;;;9.00;;
33154;SDS011;19511;42.682;23.332;2023-06-22T06:26:59;21.83;;;8.55;;
33154;SDS011;19511;42.682;23.332;2023-06-22T06:29:24;20.25;;;10.82;;
33154;SDS011;19511;42.682;23.332;2023-06-22T06:31:50;19.25;;;8.73;;
33154;SDS011;19511;42.682;23.332;2023-06-22T06:34:15;12.10;;;7.57;;
33154;SDS011;19511;42.682;23.332;2023-06-22T06:36:41;19.08;;;8.75;;
33154;SDS011;19511;42.682;23.332;2023-06-22T06:39:07;18.85;;;9.82;;
33154;SDS011;19511;42.682;23.332;2023-06-22T06:41:33;16.98;;;8.98;;
33154;SDS011;19511;42.682;23.332;2023-06-22T06:43:59;19.10;;;8.38;;
33154;SDS011;19511;42.682;23.332;2023-06-22T06:46:25;21.95;;;8.95;;
33154;SDS011;19511;42.682;23.332;2023-06-22T06:48:50;13.55;;;7.60;;
33154;SDS011;19511;42.682;23.332;2023-06-22T06:51:16;14.50;;;8.10;;
33154;SDS011;19511;42.682;23.332;2023-06-22T06:53:41;16.10;;;7.80;;
33154;SDS011;19511;42.682;23.332;2023-06-22T06:56:07;14.50;;;8.00;;
33154;SDS011;19511;42.682;23.332;2023-06-22T06:58:35;17.63;;;8.68;;
33154;SDS011;19511;42.682;23.332;2023-06-22T07:01:01;16.50;;;8.13;;
33154;SDS011;19511;42.682;23.332;2023-06-22T07:03:28;15.60;;;8.07;;
33154;SDS011;19511;42.682;23.332;2023-06-22T07:05:53;19.45;;;7.88;;
33154;SDS011;19511;42.682;23.332;2023-06-22T07:08:19;18.35;;;8.30;;
33154;SDS011;19511;42.682;23.332;2023-06-22T07:10:44;15.63;;;8.80;;
33154;SDS011;19511;42.682;23.332;2023-06-22T07:13:10;12.85;;;7.03;;
33154;SDS011;19511;42.682;23.332;2023-06-22T07:15:35;12.07;;;7.47;;
33154;SDS011;19511;42.682;23.332;2023-06-22T07:18:00;13.77;;;7.50;;
33154;SDS011;19511;42.682;23.332;2023-06-22T07:20:26;18.90;;;7.65;;
33154;SDS011;19511;42.682;23.332;2023-06-22T07:22:51;15.80;;;7.68;;
33154;SDS011;19511;42.682;23.332;2023-06-22T07:25:17;16.88;;;7.38;;
33154;SDS011;19511;42.682;23.332;2023-06-22T07:27:44;17.48;;;7.47;;
33154;SDS011;19511;42.682;23.332;2023-06-22T07:30:11;13.63;;;7.40;;
33154;SDS011;19511;42.682;23.332;2023-06-22T07:32:37;14.00;;;6.78;;
33154;SDS011;19511;42.682;23.332;2023-06-22T07:35:03;13.25;;;7.28;;
33154;SDS011;19511;42.682;23.332;2023-06-22T07:37:29;11.88;;;7.18;;
33154;SDS011;19511;42.682;23.332;2023-06-22T07:39:59;21.83;;;7.35;;
33154;SDS011;19511;42.682;23.332;2023-06-22T07:42:24;12.63;;;7.65;;
33154;SDS011;19511;42.682;23.332;2023-06-22T07:44:50;14.05;;;7.18;;
33154;SDS011;19511;42.682;23.332;2023-06-22T07:47:17;15.38;;;7.65;;
33154;SDS011;19511;42.682;23.332;2023-06-22T07:49:44;16.00;;;7.32;;
33154;SDS011;19511;42.682;23.332;2023-06-22T07:52:10;12.35;;;7.30;;
33154;SDS011;19511;42.682;23.332;2023-06-22T07:54:36;16.33;;;8.27;;
33154;SDS011;19511;42.682;23.332;2023-06-22T07:57:01;14.73;;;7.63;;
33154;SDS011;19511;42.682;23.332;2023-06-22T07:59:27;20.38;;;7.78;;
33154;SDS011;19511;42.682;23.332;2023-06-22T08:01:56;13.48;;;7.57;;
33154;SDS011;19511;42.682;23.332;2023-06-22T08:04:25;19.58;;;7.70;;
33154;SDS011;19511;42.682;23.332;2023-06-22T08:06:52;13.82;;;6.05;;
33154;SDS011;19511;42.682;23.332;2023-06-22T08:09:27;14.82;;;8.02;;
33154;SDS011;19511;42.682;23.332;2023-06-22T08:11:53;13.00;;;6.90;;
33154;SDS011;19511;42.682;23.332;2023-06-22T08:14:20;17.73;;;8.60;;
33154;SDS011;19511;42.682;23.332;2023-06-22T08:16:48;9.57;;;6.40;;
33154;SDS011;19511;42.682;23.332;2023-06-22T08:19:17;13.25;;;7.88;;
33154;SDS011;19511;42.682;23.332;2023-06-22T08:21:43;19.35;;;7.72;;
33154;SDS011;19511;42.682;23.332;2023-06-22T08:24:12;15.10;;;7.03;;
33154;SDS011;19511;42.682;23.332;2023-06-22T08:26:37;11.18;;;6.68;;
33154;SDS011;19511;42.682;23.332;2023-06-22T08:29:03;16.13;;;7.72;;
33154;SDS011;19511;42.682;23.332;2023-06-22T08:31:30;12.80;;;7.30;;
33154;SDS011;19511;42.682;23.332;2023-06-22T08:33:56;23.95;;;7.10;;
33154;SDS011;19511;42.682;23.332;2023-06-22T08:36:21;8.95;;;6.32;;
33154;SDS011;19511;42.682;23.332;2023-06-22T08:38:51;17.42;;;7.75;;
33154;SDS011;19511;42.682;23.332;2023-06-22T08:41:22;13.93;;;6.82;;
33154;SDS011;19511;42.682;23.332;2023-06-22T08:43:48;12.48;;;5.97;;
33154;SDS011;19511;42.682;23.332;2023-06-22T08:46:13;11.48;;;6.57;;
33154;SDS011;19511;42.682;23.332;2023-06-22T08:48:39;13.77;;;7.25;;
33154;SDS011;19511;42.682;23.332;2023-06-22T08:51:04;9.13;;;5.93;;
33154;SDS011;19511;42.682;23.332;2023-06-22T08:53:30;15.30;;;6.88;;
33154;SDS011;19511;42.682;23.332;2023-06-22T08:55:55;12.35;;;7.03;;
33154;SDS011;19511;42.682;23.332;2023-06-22T08:58:28;18.50;;;6.55;;
33154;SDS011;19511;42.682;23.332;2023-06-22T09:03:26;10.43;;;6.65;;
33154;SDS011;19511;42.682;23.332;2023-06-22T09:05:54;10.15;;;6.68;;
33154;SDS011;19511;42.682;23.332;2023-06-22T09:08:23;9.75;;;6.32;;
33154;SDS011;19511;42.682;23.332;2023-06-22T09:10:48;10.93;;;5.97;;
33154;SDS011;19511;42.682;23.332;2023-06-22T09:13:16;9.07;;;6.40;;
33154;SDS011;19511;42.682;23.332;2023-06-22T09:15:42;10.80;;;6.05;;
33154;SDS011;19511;42.682;23.332;2023-06-22T09:18:13;10.77;;;5.72;;
33154;SDS011;19511;42.682;23.332;2023-06-22T09:20:39;10.68;;;6.78;;
33154;SDS011;19511;42.682;23.332;2023-06-22T09:23:04;13.70;;;5.97;;
33154;SDS011;19511;42.682;23.332;2023-06-22T09:25:30;17.23;;;9.27;;
33154;SDS011;19511;42.682;23.332;2023-06-22T09:27:59;7.97;;;4.88;;
33154;SDS011;19511;42.682;23.332;2023-06-22T09:30:25;7.38;;;4.63;;
33154;SDS011;19511;42.682;23.332;2023-06-22T09:32:50;9.82;;;5.68;;
33154;SDS011;19511;42.682;23.332;2023-06-22T09:35:19;7.35;;;4.75;;
33154;SDS011;19511;42.682;23.332;2023-06-22T09:37:45;9.02;;;5.18;;
33154;SDS011;19511;42.682;23.332;2023-06-22T09:40:10;8.75;;;6.00;;
33154;SDS011;19511;42.682;23.332;2023-06-22T09:42:38;8.77;;;5.13;;
33154;SDS011;19511;42.682;23.332;2023-06-22T09:45:07;14.35;;;6.25;;
33154;SDS011;19511;42.682;23.332;2023-06-22T09:47:33;10.45;;;6.10;;
33154;SDS011;19511;42.682;23.332;2023-06-22T09:49:59;17.05;;;6.20;;
33154;SDS011;19511;42.682;23.332;2023-06-22T09:52:24;16.92;;;6.53;;
33154;SDS011;19511;42.682;23.332;2023-06-22T09:54:50;9.05;;;6.00;;
33154;SDS011;19511;42.682;23.332;2023-06-22T09:57:16;15.55;;;7.20;;
33154;SDS011;19511;42.682;23.332;2023-06-22T09:59:41;15.35;;;7.00;;
33154;SDS011;19511;42.682;23.332;2023-06-22T10:02:10;8.60;;;6.00;;
33154;SDS011;19511;42.682;23.332;2023-06-22T10:04:35;11.23;;;6.63;;
33154;SDS011;19511;42.682;23.332;2023-06-22T10:07:01;9.55;;;5.88;;
33154;SDS011;19511;42.682;23.332;2023-06-22T10:09:27;9.02;;;6.35;;
33154;SDS011;19511;42.682;23.332;2023-06-22T10:11:53;15.02;;;6.63;;
33154;SDS011;19511;42.682;23.332;2023-06-22T10:14:18;9.00;;;6.03;;
33154;SDS011;19511;42.682;23.332;2023-06-22T10:16:49;11.13;;;6.80;;
33154;SDS011;19511;42.682;23.332;2023-06-22T10:19:16;14.07;;;6.57;;
33154;SDS011;19511;42.682;23.332;2023-06-22T10:21:45;15.55;;;5.78;;
33154;SDS011;19511;42.682;23.332;2023-06-22T10:24:15;12.98;;;6.68;;
33154;SDS011;19511;42.682;23.332;2023-06-22T10:26:40;13.00;;;6.15;;
33154;SDS011;19511;42.682;23.332;2023-06-22T10:29:10;11.70;;;5.82;;
33154;SDS011;19511;42.682;23.332;2023-06-22T10:31:35;9.55;;;5.93;;
33154;SDS011;19511;42.682;23.332;2023-06-22T10:34:07;10.82;;;6.47;;
33154;SDS011;19511;42.682;23.332;2023-06-22T10:36:36;9.70;;;6.97;;
33154;SDS011;19511;42.682;23.332;2023-06-22T10:39:02;11.02;;;6.47;;
33154;SDS011;19511;42.682;23.332;2023-06-22T10:41:28;9.38;;;6.00;;
33154;SDS011;19511;42.682;23.332;2023-06-22T10:43:55;12.30;;;6.47;;
33154;SDS011;19511;42.682;23.332;2023-06-22T10:46:25;8.48;;;5.25;;
33154;SDS011;19511;42.682;23.332;2023-06-22T10:48:51;10.60;;;6.38;;
33154;SDS011;19511;42.682;23.332;2023-06-22T10:51:19;12.63;;;5.60;;
33154;SDS011;19511;42.682;23.332;2023-06-22T10:53:51;10.02;;;6.18;;
33154;SDS011;19511;42.682;23.332;2023-06-22T10:56:21;12.23;;;6.65;;
33154;SDS011;19511;42.682;23.332;2023-06-22T10:58:46;8.93;;;5.65;;
33154;SDS011;19511;42.682;23.332;2023-06-22T11:01:12;7.22;;;5.00;;
33154;SDS011;19511;42.682;23.332;2023-06-22T11:03:41;9.38;;;5.75;;
33154;SDS011;19511;42.682;23.332;2023-06-22T11:06:14;8.80;;;5.10;;
33154;SDS011;19511;42.682;23.332;2023-06-22T11:08:46;7.28;;;5.53;;
33154;SDS011;19511;42.682;23.332;2023-06-22T11:11:12;9.82;;;5.75;;
33154;SDS011;19511;42.682;23.332;2023-06-22T11:13:43;9.75;;;6.07;;
33154;SDS011;19511;42.682;23.332;2023-06-22T11:16:14;8.68;;;5.60;;
33154;SDS011;19511;42.682;23.332;2023-06-22T11:18:43;9.55;;;5.30;;
33154;SDS011;19511;42.682;23.332;2023-06-22T11:21:10;9.77;;;6.00;;
33154;SDS011;19511;42.682;23.332;2023-06-22T11:23:41;12.80;;;5.60;;
33154;SDS011;19511;42.682;23.332;2023-06-22T11:26:07;11.57;;;5.50;;
33154;SDS011;19511;42.682;23.332;2023-06-22T11:28:33;10.18;;;5.80;;
33154;SDS011;19511;42.682;23.332;2023-06-22T11:31:01;8.95;;;5.80;;
33154;SDS011;19511;42.682;23.332;2023-06-22T11:33:32;12.73;;;5.47;;
33154;SDS011;19511;42.682;23.332;2023-06-22T11:36:01;6.75;;;5.18;;
33154;SDS011;19511;42.682;23.332;2023-06-22T11:38:27;13.40;;;5.93;;
33154;SDS011;19511;42.682;23.332;2023-06-22T11:41:04;8.45;;;5.78;;
33154;SDS011;19511;42.682;23.332;2023-06-22T11:43:34;8.80;;;5.20;;
33154;SDS011;19511;42.682;23.332;2023-06-22T11:46:05;8.25;;;5.43;;
33154;SDS011;19511;42.682;23.332;2023-06-22T11:48:35;9.57;;;5.00;;
33154;SDS011;19511;42.682;23.332;2023-06-22T11:51:05;9.85;;;5.30;;
33154;SDS011;19511;42.682;23.332;2023-06-22T11:53:31;8.77;;;5.45;;
33154;SDS011;19511;42.682;23.332;2023-06-22T11:55:57;9.65;;;5.63;;
33154;SDS011;19511;42.682;23.332;2023-06-22T11:58:27;7.75;;;5.22;;
33154;SDS011;19511;42.682;23.332;2023-06-22T12:00:56;10.77;;;5.85;;
33154;SDS011;19511;42.682;23.332;2023-06-22T12:03:26;8.25;;;5.57;;
33154;SDS011;19511;42.682;23.332;2023-06-22T12:05:52;8.55;;;4.60;;
33154;SDS011;19511;42.682;23.332;2023-06-22T12:08:17;18.65;;;5.30;;
33154;SDS011;19511;42.682;23.332;2023-06-22T12:10:47;9.82;;;5.40;;
33154;SDS011;19511;42.682;23.332;2023-06-22T12:13:15;7.40;;;5.00;;
33154;SDS011;19511;42.682;23.332;2023-06-22T12:15:40;8.38;;;5.78;;
33154;SDS011;19511;42.682;23.332;2023-06-22T12:18:10;10.32;;;5.70;;
33154;SDS011;19511;42.682;23.332;2023-06-22T12:20:39;8.63;;;5.40;;
33154;SDS011;19511;42.682;23.332;2023-06-22T12:23:12;10.13;;;5.63;;
33154;SDS011;19511;42.682;23.332;2023-06-22T12:25:46;8.88;;;5.57;;
33154;SDS011;19511;42.682;23.332;2023-06-22T12:28:18;8.10;;;5.18;;
33154;SDS011;19511;42.682;23.332;2023-06-22T12:30:47;13.80;;;5.75;;
33154;SDS011;19511;42.682;23.332;2023-06-22T12:33:16;10.48;;;6.05;;
33154;SDS011;19511;42.682;23.332;2023-06-22T12:35:45;14.15;;;6.30;;
33154;SDS011;19511;42.682;23.332;2023-06-22T12:38:14;13.20;;;6.80;;
33154;SDS011;19511;42.682;23.332;2023-06-22T12:40:40;10.10;;;5.80;;
33154;SDS011;19511;42.682;23.332;2023-06-22T12:43:05;14.70;;;5.90;;
33154;SDS011;19511;42.682;23.332;2023-06-22T12:45:35;7.57;;;4.50;;
33154;SDS011;19511;42.682;23.332;2023-06-22T12:48:04;14.35;;;5.65;;
33154;SDS011;19511;42.682;23.332;2023-06-22T12:50:41;10.10;;;5.30;;
33154;SDS011;19511;42.682;23.332;2023-06-22T12:53:10;19.58;;;5.63;;
33154;SDS011;19511;42.682;23.332;2023-06-22T12:55:35;12.88;;;5.38;;
33154;SDS011;19511;42.682;23.332;2023-06-22T12:58:05;8.43;;;4.82;;
33154;SDS011;19511;42.682;23.332;2023-06-22T13:00:31;10.95;;;5.57;;
33154;SDS011;19511;42.682;23.332;2023-06-22T13:03:00;14.25;;;5.88;;
33154;SDS011;19511;42.682;23.332;2023-06-22T13:05:28;13.63;;;6.15;;
33154;SDS011;19511;42.682;23.332;2023-06-22T13:07:59;14.90;;;6.85;;
33154;SDS011;19511;42.682;23.332;2023-06-22T13:10:25;13.80;;;6.72;;
33154;SDS011;19511;42.682;23.332;2023-06-22T13:12:53;12.38;;;6.43;;
33154;SDS011;19511;42.682;23.332;2023-06-22T13:15:25;14.82;;;6.55;;
33154;SDS011;19511;42.682;23.332;2023-06-22T13:17:56;16.27;;;7.43;;
33154;SDS011;19511;42.682;23.332;2023-06-22T13:20:21;13.73;;;7.15;;
33154;SDS011;19511;42.682;23.332;2023-06-22T13:22:49;17.55;;;8.13;;
33154;SDS011;19511;42.682;23.332;2023-06-22T13:25:15;17.38;;;8.55;;
33154;SDS011;19511;42.682;23.332;2023-06-22T13:27:47;12.85;;;7.35;;
33154;SDS011;19511;42.682;23.332;2023-06-22T13:30:13;12.90;;;7.32;;
33154;SDS011;19511;42.682;23.332;2023-06-22T13:32:46;14.73;;;7.88;;
33154;SDS011;19511;42.682;23.332;2023-06-22T13:35:18;17.33;;;7.63;;
33154;SDS011;19511;42.682;23.332;2023-06-22T13:37:44;13.52;;;7.70;;
33154;SDS011;19511;42.682;23.332;2023-06-22T13:40:13;12.70;;;7.95;;
33154;SDS011;19511;42.682;23.332;2023-06-22T13:42:39;14.85;;;7.90;;
33154;SDS011;19511;42.682;23.332;2023-06-22T13:45:05;12.05;;;8.05;;
33154;SDS011;19511;42.682;23.332;2023-06-22T13:47:39;16.23;;;7.13;;
33154;SDS011;19511;42.682;23.332;2023-06-22T13:50:05;14.13;;;7.40;;
33154;SDS011;19511;42.682;23.332;2023-06-22T13:52:35;13.15;;;6.70;;
33154;SDS011;19511;42.682;23.332;2023-06-22T13:55:01;12.60;;;7.43;;
33154;SDS011;19511;42.682;23.332;2023-06-22T13:57:27;19.98;;;7.07;;
33154;SDS011;19511;42.682;23.332;2023-06-22T13:59:55;15.75;;;7.88;;
33154;SDS011;19511;42.682;23.332;2023-06-22T14:02:28;12.82;;;7.35;;
33154;SDS011;19511;42.682;23.332;2023-06-22T14:04:54;13.43;;;7.85;;
33154;SDS011;19511;42.682;23.332;2023-06-22T14:07:23;17.08;;;8.50;;
33154;SDS011;19511;42.682;23.332;2023-06-22T14:09:55;17.15;;;8.65;;
33154;SDS011;19511;42.682;23.332;2023-06-22T14:12:24;22.92;;;10.60;;
33154;SDS011;19511;42.682;23.332;2023-06-22T14:14:53;14.70;;;9.25;;
33154;SDS011;19511;42.682;23.332;2023-06-22T14:17:19;15.82;;;9.13;;
33154;SDS011;19511;42.682;23.332;2023-06-22T14:19:53;17.20;;;9.70;;
33154;SDS011;19511;42.682;23.332;2023-06-22T14:22:26;26.70;;;9.30;;
33154;SDS011;19511;42.682;23.332;2023-06-22T14:24:54;25.55;;;10.18;;
33154;SDS011;19511;42.682;23.332;2023-06-22T14:27:21;15.90;;;9.05;;
33154;SDS011;19511;42.682;23.332;2023-06-22T14:29:46;16.60;;;8.50;;
33154;SDS011;19511;42.682;23.332;2023-06-22T14:32:12;15.25;;;7.95;;
33154;SDS011;19511;42.682;23.332;2023-06-22T14:34:37;13.95;;;8.35;;
33154;SDS011;19511;42.682;23.332;2023-06-22T14:37:05;19.20;;;8.05;;
33154;SDS011;19511;42.682;23.332;2023-06-22T14:39:34;16.10;;;9.10;;